Time;durP1;ratioP1;P1;durP2;ratioP2;P2;SDS_P1;SDS_P2;PMS_P1;PMS_P2;Temp;Humidity;BMP_temperature;BMP_pressure;BME280_temperature;BME280_humidity;BME280_pressure;Samples;Min_cycle;Max_cycle;Signal;HPM_P1;HPM_P2
2020/12/30 00:00:30;;;;;;;33.80;20.70;;;;;;;2.22;76.71;98839.08;120529;1154;104356;-82
2020/12/30 00:03:03;;;;;;;31.03;18.70;;;;;;;2.23;76.47;98837.35;120659;1150;105485;-82
2020/12/30 00:05:30;;;;;;;29.87;17.37;;;;;;;2.24;76.26;98845.03;120527;1150;103690;-81
2020/12/30 00:07:57;;;;;;;29.37;16.43;;;;;;;2.24;76.66;98842.45;120531;1151;104374;-82
2020/12/30 00:10:25;;;;;;;27.98;14.28;;;;;;;2.25;76.59;98841.58;120644;1150;104777;-81
2020/12/30 00:12:52;;;;;;;26.20;13.40;;;;;;;2.26;76.17;98845.84;120551;1151;104403;-82
2020/12/30 00:15:20;;;;;;;24.07;12.73;;;;;;;2.27;76.86;98851.84;120597;1151;101910;-82
2020/12/30 00:17:47;;;;;;;25.90;13.53;;;;;;;2.26;76.20;98845.84;120531;1150;105531;-82
2020/12/30 00:20:17;;;;;;;25.30;13.20;;;;;;;2.27;76.33;98849.27;120521;1151;104358;-82
2020/12/30 00:22:45;;;;;;;22.97;12.70;;;;;;;2.27;76.26;98842.39;120551;1151;104344;-82
2020/12/30 00:25:13;;;;;;;23.50;12.13;;;;;;;2.28;76.16;98848.38;120592;1150;104446;-82
2020/12/30 00:27:43;;;;;;;21.73;12.17;;;;;;;2.28;76.17;98846.66;120507;1151;104442;-82
2020/12/30 00:30:15;;;;;;;22.83;12.60;;;;;;;2.28;76.15;98845.81;120502;1150;104516;-82
2020/12/30 00:32:43;;;;;;;23.67;12.73;;;;;;;2.27;76.46;98847.53;120555;1151;104338;-81
2020/12/30 00:35:13;;;;;;;22.97;11.63;;;;;;;2.28;77.04;98854.38;120552;1150;104390;-81
2020/12/30 00:37:41;;;;;;;23.93;12.93;;;;;;;2.26;76.35;98850.98;120572;1151;104352;-81
2020/12/30 00:40:09;;;;;;;24.10;12.17;;;;;;;2.25;76.48;98863.89;120530;1151;102182;-81
2020/12/30 00:42:38;;;;;;;25.90;12.27;;;;;;;2.23;76.35;98850.21;120696;1151;104462;-82
2020/12/30 00:45:07;;;;;;;23.37;12.43;;;;;;;2.20;76.70;98851.13;120604;1150;104280;-81
2020/12/30 00:47:34;;;;;;;24.57;13.43;;;;;;;2.19;76.52;98862.30;120577;1150;104435;-81
2020/12/30 00:50:03;;;;;;;24.63;13.43;;;;;;;2.17;76.40;98870.92;120572;1151;104349;-82
2020/12/30 00:52:31;;;;;;;21.77;12.47;;;;;;;2.14;76.84;98864.09;120654;1150;104333;-82
2020/12/30 00:55:03;;;;;;;22.57;12.40;;;;;;;2.13;77.04;98870.96;120593;1150;102800;-82
2020/12/30 00:57:50;;;;;;;24.13;12.23;;;;;;;2.12;76.77;98869.27;120648;1151;104234;-80
2020/12/30 01:00:18;;;;;;;19.67;11.37;;;;;;;2.12;77.20;98874.41;120772;1150;104362;-82
2020/12/30 01:03:03;;;;;;;23.03;12.63;;;;;;;2.12;77.20;98878.71;120679;1151;104394;-82
2020/12/30 01:05:30;;;;;;;22.47;12.23;;;;;;;2.11;76.93;98871.88;120634;1151;104352;-82
2020/12/30 01:07:58;;;;;;;23.93;12.37;;;;;;;2.10;77.58;98871.03;120588;1150;104340;-82
2020/12/30 01:10:25;;;;;;;20.80;12.37;;;;;;;2.09;77.23;98871.91;120612;1150;104351;-82
2020/12/30 01:12:52;;;;;;;24.97;13.07;;;;;;;2.08;77.23;98870.22;120556;1150;104501;-82
2020/12/30 01:15:20;;;;;;;25.25;12.98;;;;;;;2.07;77.44;98875.39;120534;1151;104292;-82
2020/12/30 01:17:47;;;;;;;23.60;13.13;;;;;;;2.06;77.35;98879.69;120623;1150;104461;-81
2020/12/30 01:20:14;;;;;;;22.47;13.20;;;;;;;2.06;77.29;98868.55;120542;1151;104393;-82
2020/12/30 01:22:41;;;;;;;27.73;13.17;;;;;;;2.06;77.62;98863.41;120601;1149;104572;-81
2020/12/30 01:25:08;;;;;;;25.40;13.07;;;;;;;2.05;77.38;98857.42;120655;1151;104324;-81
2020/12/30 01:27:35;;;;;;;24.80;13.07;;;;;;;2.05;77.07;98861.72;120576;1151;103131;-82
2020/12/30 01:30:02;;;;;;;20.93;11.67;;;;;;;2.03;77.29;98854.04;120552;1151;104428;-81
2020/12/30 01:32:29;;;;;;;24.47;12.33;;;;;;;2.02;77.20;98860.06;120514;1151;104446;-81
2020/12/30 01:34:56;;;;;;;21.43;12.40;;;;;;;2.03;77.70;98858.34;120579;1150;104373;-81
2020/12/30 01:37:24;;;;;;;24.30;12.93;;;;;;;2.02;77.83;98859.22;120550;1151;104337;-82
2020/12/30 01:39:51;;;;;;;23.00;13.03;;;;;;;2.02;78.01;98864.36;120530;1150;103156;-82
2020/12/30 01:42:19;;;;;;;22.87;12.80;;;;;;;2.03;77.80;98863.48;120583;1150;104435;-82
2020/12/30 01:44:46;;;;;;;26.47;13.67;;;;;;;2.05;78.24;98872.01;120589;1151;104400;-81
2020/12/30 01:47:14;;;;;;;27.67;13.43;;;;;;;2.05;77.95;98878.00;120548;1151;104336;-81
2020/12/30 01:49:41;;;;;;;22.17;12.63;;;;;;;2.07;77.78;98880.53;120699;1150;104385;-81
2020/12/30 01:52:09;;;;;;;25.23;12.40;;;;;;;2.08;77.96;98877.09;120585;1151;104472;-82
2020/12/30 01:54:36;;;;;;;25.33;12.63;;;;;;;2.07;78.09;98870.25;120631;1151;104182;-81
2020/12/30 01:57:04;;;;;;;25.50;12.67;;;;;;;2.09;77.70;98868.49;120567;1150;104467;-81
2020/12/30 01:59:31;;;;;;;24.53;12.00;;;;;;;2.13;78.01;98870.11;120630;1150;104500;-81
2020/12/30 02:02:06;;;;;;;22.20;11.60;;;;;;;2.15;78.36;98875.23;120589;1151;104413;-81
2020/12/30 02:04:42;;;;;;;24.63;12.97;;;;;;;2.17;78.17;98879.48;120585;1151;104549;-82
2020/12/30 02:07:09;;;;;;;24.90;12.93;;;;;;;2.20;78.19;98896.58;120513;1150;104370;-80
2020/12/30 02:09:39;;;;;;;23.87;12.50;;;;;;;2.20;78.16;98892.28;120643;1150;104484;-80
2020/12/30 02:12:07;;;;;;;22.90;12.30;;;;;;;2.19;77.69;98885.45;120531;1150;104348;-82
2020/12/30 02:14:34;;;;;;;24.97;13.20;;;;;;;2.19;77.84;98895.73;120541;1151;104423;-82
2020/12/30 02:17:01;;;;;;;23.95;13.60;;;;;;;2.19;78.03;98912.89;120546;1151;104488;-82
2020/12/30 02:19:29;;;;;;;28.30;13.80;;;;;;;2.17;78.04;98914.66;120603;1151;104291;-82
2020/12/30 02:22:02;;;;;;;22.30;13.03;;;;;;;2.18;78.20;98904.33;120528;1151;104767;-82
2020/12/30 02:24:30;;;;;;;25.50;13.07;;;;;;;2.17;78.36;98897.49;120494;1151;104278;-82
2020/12/30 02:26:58;;;;;;;23.63;13.17;;;;;;;2.19;78.58;98900.88;120674;1150;104326;-82
2020/12/30 02:29:28;;;;;;;26.37;13.20;;;;;;;2.20;78.63;98896.58;120618;1151;104355;-82
2020/12/30 02:31:56;;;;;;;26.07;13.40;;;;;;;2.21;78.87;98901.69;120535;1151;104437;-82
2020/12/30 02:34:23;;;;;;;24.20;12.33;;;;;;;2.22;78.66;98895.67;120672;1150;104226;-82
2020/12/30 02:36:51;;;;;;;25.27;13.47;;;;;;;2.24;78.61;98909.34;120649;1150;104371;-82
2020/12/30 02:39:19;;;;;;;26.97;14.07;;;;;;;2.25;78.96;98899.90;120599;1151;104331;-82
2020/12/30 02:41:49;;;;;;;24.53;13.73;;;;;;;2.26;78.47;98896.45;120642;1150;104365;-82
2020/12/30 02:44:17;;;;;;;24.23;14.10;;;;;;;2.25;78.63;98898.17;120580;1151;104393;-82
2020/12/30 02:46:44;;;;;;;27.93;14.87;;;;;;;2.26;78.60;98897.30;120546;1151;104380;-82
2020/12/30 02:49:11;;;;;;;26.27;14.60;;;;;;;2.26;78.81;98894.72;120572;1151;105004;-83
2020/12/30 02:51:45;;;;;;;25.60;13.57;;;;;;;2.26;78.96;98897.30;120717;1150;104277;-82
2020/12/30 02:54:13;;;;;;;25.57;14.00;;;;;;;2.27;78.87;98898.14;120700;1150;104443;-82
2020/12/30 02:56:40;;;;;;;24.65;13.60;;;;;;;2.25;78.60;98892.19;120645;1151;104475;-81
2020/12/30 02:59:07;;;;;;;24.03;13.20;;;;;;;2.26;78.63;98899.86;120527;1151;104255;-82
2020/12/30 03:01:34;;;;;;;25.57;13.77;;;;;;;2.27;79.12;98891.27;120584;1149;104322;-82
2020/12/30 03:04:02;;;;;;;27.47;13.30;;;;;;;2.29;79.09;98896.37;120639;1150;104952;-82
2020/12/30 03:06:29;;;;;;;25.90;14.17;;;;;;;2.30;79.13;98898.08;120587;1150;104481;-82
2020/12/30 03:08:56;;;;;;;24.60;13.32;;;;;;;2.32;78.75;98894.59;120578;1150;104322;-82
2020/12/30 03:11:25;;;;;;;25.37;13.57;;;;;;;2.35;78.78;98899.70;120538;1151;104426;-82
2020/12/30 03:13:53;;;;;;;27.03;13.20;;;;;;;2.37;78.83;98897.94;120659;1150;104365;-82
2020/12/30 03:16:20;;;;;;;26.30;13.85;;;;;;;2.39;78.88;98898.75;120630;1151;101853;-81
2020/12/30 03:18:48;;;;;;;23.10;13.37;;;;;;;2.41;78.53;98891.84;120538;1151;104373;-81
2020/12/30 03:21:15;;;;;;;25.77;13.13;;;;;;;2.43;78.62;98889.23;120563;1150;104492;-81
2020/12/30 03:23:42;;;;;;;22.43;12.80;;;;;;;2.44;78.87;98901.22;120566;1151;104420;-82
2020/12/30 03:26:10;;;;;;;24.57;13.17;;;;;;;2.45;78.49;98902.91;120699;1150;104337;-82
2020/12/30 03:28:37;;;;;;;22.03;13.20;;;;;;;2.48;78.96;98907.14;120612;1151;104338;-81
2020/12/30 03:31:05;;;;;;;24.20;13.33;;;;;;;2.49;79.06;98888.25;120670;1151;104350;-82
2020/12/30 03:33:32;;;;;;;24.30;13.70;;;;;;;2.51;78.93;98904.50;120604;1151;104413;-81
2020/12/30 03:35:59;;;;;;;23.10;13.07;;;;;;;2.52;79.25;98899.34;120616;1150;104365;-81
2020/12/30 03:38:26;;;;;;;22.00;12.80;;;;;;;2.53;78.56;98895.05;120771;1150;105915;-82
2020/12/30 03:40:53;;;;;;;22.27;12.97;;;;;;;2.54;78.99;98889.02;120606;1151;104512;-82
2020/12/30 03:43:20;;;;;;;25.70;13.30;;;;;;;2.58;78.88;98893.21;120531;1151;105594;-82
2020/12/30 03:45:47;;;;;;;22.80;12.47;;;;;;;2.58;78.91;98893.21;120703;1151;104405;-82
2020/12/30 03:48:14;;;;;;;20.73;12.83;;;;;;;2.61;79.07;98890.56;120570;1150;104280;-82
2020/12/30 03:50:41;;;;;;;26.50;13.13;;;;;;;2.64;78.88;98890.50;120563;1150;104495;-82
2020/12/30 03:53:08;;;;;;;21.90;12.17;;;;;;;2.65;78.98;98898.18;120536;1150;104466;-82
2020/12/30 03:55:36;;;;;;;22.15;12.05;;;;;;;2.67;79.12;98900.72;120502;1151;104521;-81
2020/12/30 03:58:03;;;;;;;20.52;11.10;;;;;;;2.71;78.91;98897.22;120640;1151;104374;-82
2020/12/30 04:00:30;;;;;;;18.87;11.00;;;;;;;2.74;79.28;98894.58;120573;1151;104476;-81
2020/12/30 04:02:57;;;;;;;18.17;10.80;;;;;;;2.78;79.18;98903.91;120554;1151;104429;-82
2020/12/30 04:05:24;;;;;;;18.07;10.73;;;;;;;2.81;79.03;98898.70;120521;1151;104191;-82
2020/12/30 04:07:53;;;;;;;22.20;11.18;;;;;;;2.87;79.20;98893.43;120544;1150;104415;-82
2020/12/30 04:10:20;;;;;;;22.13;11.10;;;;;;;2.92;79.46;98894.16;120694;1150;104359;-81
2020/12/30 04:12:47;;;;;;;20.70;11.03;;;;;;;2.97;79.22;98901.77;120543;1151;104331;-81
2020/12/30 04:15:14;;;;;;;18.00;10.67;;;;;;;3.01;79.35;98895.66;120532;1151;102910;-82
2020/12/30 04:17:41;;;;;;;20.63;10.53;;;;;;;3.05;79.01;98889.55;120487;1150;105054;-82
2020/12/30 04:20:08;;;;;;;19.50;10.53;;;;;;;3.10;78.83;98902.34;120639;1150;104415;-81
2020/12/30 04:22:36;;;;;;;19.73;10.60;;;;;;;3.13;79.20;98903.11;120608;1150;104385;-82
2020/12/30 04:25:05;;;;;;;15.20;9.17;;;;;;;3.18;78.98;98895.27;120549;1151;103020;-81
2020/12/30 04:27:32;;;;;;;15.90;9.70;;;;;;;3.22;78.77;98892.58;120673;1150;104416;-82
2020/12/30 04:29:59;;;;;;;18.87;10.00;;;;;;;3.27;79.07;98895.06;120495;1151;104340;-82
2020/12/30 04:32:26;;;;;;;16.60;9.77;;;;;;;3.33;79.21;98892.33;120478;1151;104365;-82
2020/12/30 04:34:53;;;;;;;17.47;9.33;;;;;;;3.38;78.88;98908.52;120602;1149;104509;-82
2020/12/30 04:37:21;;;;;;;18.00;9.00;;;;;;;3.43;78.88;98905.85;120699;1150;104354;-82
2020/12/30 04:39:48;;;;;;;15.53;9.23;;;;;;;3.48;78.32;98915.16;120518;1151;104423;-82
2020/12/30 04:42:24;;;;;;;17.27;9.00;;;;;;;3.51;78.56;98915.07;120617;1150;104375;-81
2020/12/30 04:44:54;;;;;;;;;;;;;;;3.57;78.73;98907.17;120537;1151;104763;-81
2020/12/30 04:47:24;;;;;;;17.43;9.53;;;;;;;3.60;78.42;98901.97;120717;1150;104356;-82
2020/12/30 04:49:51;;;;;;;16.83;9.27;;;;;;;3.63;78.85;98899.30;120610;1150;104445;-81
2020/12/30 04:52:21;;;;;;;15.67;8.57;;;;;;;3.68;78.45;98906.07;120474;1151;104588;-82
2020/12/30 04:54:50;;;;;;;16.17;9.60;;;;;;;3.69;78.41;98912.91;120541;1151;104201;-82
2020/12/30 04:57:41;;;;;;;21.33;9.63;;;;;;;3.71;78.44;98917.14;120616;1150;104249;-82
2020/12/30 05:00:08;;;;;;;16.67;9.47;;;;;;;3.72;78.69;98913.67;120525;1151;104418;-82
2020/12/30 05:02:46;;;;;;;16.77;9.00;;;;;;;3.73;78.53;98914.52;120460;1150;104379;-82
2020/12/30 05:05:17;;;;;;;17.07;10.07;;;;;;;3.73;78.50;98924.84;120547;1151;104468;-82
2020/12/30 05:07:45;;;;;;;15.20;9.20;;;;;;;3.70;78.69;98930.92;120547;1150;103124;-82
2020/12/30 05:10:16;;;;;;;19.33;9.57;;;;;;;3.68;78.54;98943.02;120482;1151;104345;-82
2020/12/30 05:12:43;;;;;;;16.97;9.43;;;;;;;3.67;78.38;98940.47;120672;1150;104392;-81
2020/12/30 05:15:10;;;;;;;14.53;8.57;;;;;;;3.66;78.46;98939.63;120616;1150;104388;-82
2020/12/30 05:17:40;;;;;;;16.55;9.30;;;;;;;3.65;79.06;98943.09;120525;1150;105026;-82
2020/12/30 05:20:09;;;;;;;16.33;9.00;;;;;;;3.65;79.96;98948.25;120614;1150;104410;-82
2020/12/30 05:22:36;;;;;;;16.30;8.10;;;;;;;3.66;80.85;98955.09;120552;1151;104355;-82
2020/12/30 05:25:06;;;;;;;13.70;8.43;;;;;;;3.64;80.89;98957.72;120566;1150;104920;-82
2020/12/30 05:27:36;;;;;;;13.93;7.83;;;;;;;3.61;81.87;98954.38;120588;1151;103085;-82
2020/12/30 05:30:03;;;;;;;14.90;8.37;;;;;;;3.56;81.75;98963.92;120558;1150;104441;-83
2020/12/30 05:32:35;;;;;;;14.67;8.23;;;;;;;3.50;82.03;98959.78;120484;1151;104383;-82
2020/12/30 05:35:04;;;;;;;15.83;8.40;;;;;;;3.46;82.60;98968.47;120568;1151;104423;-83
2020/12/30 05:37:35;;;;;;;13.47;8.10;;;;;;;3.41;83.25;98965.17;120505;1151;104343;-83
2020/12/30 05:40:18;;;;;;;14.73;8.07;;;;;;;3.36;83.31;98977.29;120559;1150;104421;-82
2020/12/30 05:42:45;;;;;;;13.77;7.87;;;;;;;3.32;83.23;98962.79;120656;1151;103300;-82
2020/12/30 05:45:21;;;;;;;14.77;8.50;;;;;;;3.30;83.54;98956.83;120540;1150;104362;-83
2020/12/30 05:47:49;;;;;;;13.70;8.50;;;;;;;3.28;83.34;98971.48;120650;1150;104474;-83
2020/12/30 05:50:26;;;;;;;13.23;8.37;;;;;;;3.26;83.92;98962.94;120641;1150;102807;-83
2020/12/30 05:52:53;;;;;;;11.88;7.55;;;;;;;3.24;83.63;98957.83;120539;1151;103624;-83
2020/12/30 05:55:26;;;;;;;14.73;8.33;;;;;;;3.25;84.47;98966.41;120464;1149;104372;-83
2020/12/30 05:57:53;;;;;;;17.27;8.07;;;;;;;3.26;84.14;98965.52;120571;1151;104355;-83
2020/12/30 06:00:29;;;;;;;17.03;8.57;;;;;;;3.25;84.40;98964.67;120627;1151;104421;-83
2020/12/30 06:02:56;;;;;;;15.40;8.57;;;;;;;3.27;84.37;98956.91;120541;1151;104429;-83
2020/12/30 06:05:28;;;;;;;13.37;8.07;;;;;;;3.28;84.50;98956.02;120626;1150;104444;-83
2020/12/30 06:07:56;;;;;;;13.83;8.40;;;;;;;3.30;84.72;98951.67;120526;1149;104229;-82
2020/12/30 06:10:25;;;;;;;15.63;8.43;;;;;;;3.32;84.61;98957.64;120488;1151;104918;-82
2020/12/30 06:12:58;;;;;;;12.93;8.30;;;;;;;3.33;84.98;98956.75;120501;1150;104355;-83
2020/12/30 06:15:33;;;;;;;12.67;7.67;;;;;;;3.37;84.71;98970.41;120522;1150;104345;-83
2020/12/30 06:18:05;;;;;;;12.17;7.67;;;;;;;3.39;84.56;98966.91;120606;1150;104359;-82
2020/12/30 06:20:40;;;;;;;13.15;7.10;;;;;;;3.43;84.59;98972.86;120507;1150;102927;-82
2020/12/30 06:23:14;;;;;;;12.77;8.10;;;;;;;3.47;85.07;98969.32;120520;1151;104784;-83
2020/12/30 06:25:43;;;;;;;11.33;7.60;;;;;;;3.51;84.88;98968.36;120510;1150;104410;-82
2020/12/30 06:28:10;;;;;;;10.27;7.50;;;;;;;3.54;85.02;98966.55;120544;1150;104433;-81
2020/12/30 06:30:39;;;;;;;11.90;7.08;;;;;;;3.58;85.03;98967.31;120702;1151;104350;-81
2020/12/30 06:33:08;;;;;;;13.73;7.57;;;;;;;3.61;85.01;98967.27;120486;1150;104512;-81
2020/12/30 06:35:37;;;;;;;12.73;7.57;;;;;;;3.64;84.71;98970.61;120597;1150;104341;-82
2020/12/30 06:38:24;;;;;;;11.47;7.70;;;;;;;3.67;84.97;98968.84;120657;1151;104457;-82
2020/12/30 06:41:02;;;;;;;13.63;7.77;;;;;;;3.70;85.27;98973.91;120656;1151;101852;-81
2020/12/30 06:43:50;;;;;;;9.97;6.63;;;;;;;3.71;85.00;98967.87;120550;1151;103098;-82
2020/12/30 06:46:21;;;;;;;10.30;7.40;;;;;;;3.73;85.15;98966.09;120619;1150;104550;-83
2020/12/30 06:49:03;;;;;;;13.58;7.87;;;;;;;3.75;84.70;98969.48;120631;1151;104409;-82
2020/12/30 06:51:42;;;;;;;12.87;7.57;;;;;;;3.75;85.20;98965.17;120495;1151;102379;-82
2020/12/30 06:54:13;;;;;;;12.47;7.93;;;;;;;3.77;84.71;98986.64;120558;1150;104306;-82
2020/12/30 06:56:45;;;;;;;10.93;7.63;;;;;;;3.77;85.06;98980.59;120509;1151;102468;-82
2020/12/30 06:59:26;;;;;;;13.37;8.67;;;;;;;3.78;85.17;98984.91;120544;1151;104494;-82
2020/12/30 07:02:00;;;;;;;18.50;9.57;;;;;;;3.76;85.34;98977.17;120525;1150;103219;-83
2020/12/30 07:04:31;;;;;;;23.07;10.40;;;;;;;3.76;84.88;98977.17;120708;1150;104323;-82
2020/12/30 07:06:59;;;;;;;19.80;11.10;;;;;;;3.74;85.09;98984.11;120557;1151;104422;-82
2020/12/30 07:09:32;;;;;;;17.50;10.73;;;;;;;3.75;85.02;98984.95;120571;1151;104452;-81
2020/12/30 07:12:04;;;;;;;19.00;10.40;;;;;;;3.76;85.54;98981.48;120659;1150;104317;-82
2020/12/30 07:14:32;;;;;;;21.10;11.13;;;;;;;3.76;85.79;98989.22;120572;1150;104481;-82
2020/12/30 07:17:02;;;;;;;16.87;10.10;;;;;;;3.75;85.97;98985.80;120500;1151;104570;-82
2020/12/30 07:19:33;;;;;;;17.30;10.20;;;;;;;3.75;85.70;98984.95;120526;1151;102510;-82
2020/12/30 07:22:02;;;;;;;16.40;9.15;;;;;;;3.73;86.09;98987.57;120626;1150;104521;-82
2020/12/30 07:24:53;;;;;;;13.65;7.80;;;;;;;3.75;85.90;98979.80;120525;1151;104324;-82
2020/12/30 07:27:26;;;;;;;14.60;8.55;;;;;;;3.75;86.05;98979.80;120610;1150;104457;-81
2020/12/30 07:29:53;;;;;;;13.43;8.57;;;;;;;3.75;86.08;98974.63;120604;1150;104455;-81
2020/12/30 07:32:20;;;;;;;13.80;8.27;;;;;;;3.76;85.86;98974.59;120541;1151;102590;-82
2020/12/30 07:34:49;;;;;;;13.10;8.23;;;;;;;3.79;85.87;98971.97;120579;1151;104415;-82
2020/12/30 07:37:18;;;;;;;10.20;7.20;;;;;;;3.82;85.92;98971.04;120510;1150;104150;-82
2020/12/30 07:39:47;;;;;;;14.70;8.03;;;;;;;3.84;85.53;98964.95;120639;1150;104562;-82
2020/12/30 07:42:19;;;;;;;13.60;7.57;;;;;;;3.86;85.46;98959.75;120514;1150;104370;-81
2020/12/30 07:44:49;;;;;;;13.37;7.50;;;;;;;3.89;86.01;98952.77;120682;1149;104323;-81
2020/12/30 07:47:17;;;;;;;13.90;8.30;;;;;;;3.93;86.11;98953.53;120517;1151;104563;-82
2020/12/30 07:49:45;;;;;;;15.00;7.43;;;;;;;3.97;85.33;98949.17;120564;1150;104192;-81
2020/12/30 07:52:12;;;;;;;12.10;8.23;;;;;;;4.00;85.50;98954.25;120594;1150;104443;-81
2020/12/30 07:54:39;;;;;;;17.98;9.98;;;;;;;4.05;86.16;98949.80;120559;1151;104462;-81
2020/12/30 07:57:09;;;;;;;19.92;9.58;;;;;;;4.08;85.38;98950.56;120624;1150;104311;-82
2020/12/30 07:59:40;;;;;;;15.37;8.00;;;;;;;4.13;85.44;98951.31;120526;1151;104398;-81
2020/12/30 08:02:11;;;;;;;15.63;7.27;;;;;;;4.17;85.41;98947.75;120643;1151;104322;-81
2020/12/30 08:04:40;;;;;;;13.03;7.90;;;;;;;4.23;85.77;98947.58;120546;1151;104380;-83
2020/12/30 08:07:09;;;;;;;11.97;8.20;;;;;;;4.30;86.19;98947.39;120575;1151;104319;-82
2020/12/30 08:09:44;;;;;;;15.77;10.33;;;;;;;4.37;85.37;98947.20;120586;1151;104449;-82
2020/12/30 08:12:14;;;;;;;22.20;13.53;;;;;;;4.45;85.89;98957.30;120628;1151;104425;-82
2020/12/30 08:14:43;;;;;;;27.80;17.30;;;;;;;4.48;85.88;98952.05;120560;1149;104371;-82
2020/12/30 08:17:12;;;;;;;19.50;13.63;;;;;;;4.51;85.91;98960.58;120510;1150;105037;-82
2020/12/30 08:19:50;;;;;;;20.70;11.67;;;;;;;4.53;85.83;98965.70;120589;1150;104348;-82
2020/12/30 08:22:26;;;;;;;18.07;12.03;;;;;;;4.57;85.09;98969.03;120669;1150;104368;-82
2020/12/30 08:24:58;;;;;;;16.15;11.60;;;;;;;4.58;85.12;98966.41;120690;1150;104346;-82
2020/12/30 08:27:27;;;;;;;15.67;9.37;;;;;;;4.62;85.28;98960.25;120482;1151;104435;-82
2020/12/30 08:29:58;;;;;;;16.17;9.07;;;;;;;4.67;85.70;98955.83;120523;1151;104314;-82
2020/12/30 08:32:31;;;;;;;12.17;9.03;;;;;;;4.73;85.75;98958.22;120585;1151;104371;-83
2020/12/30 08:35:21;;;;;;;14.83;8.50;;;;;;;4.79;85.43;98952.02;120696;1150;103350;-82
2020/12/30 08:38:27;;;;;;;14.33;8.58;;;;;;;4.85;84.95;98950.13;120607;1151;103126;-82
2020/12/30 08:40:58;;;;;;;16.20;8.83;;;;;;;4.91;85.06;98945.66;120568;1150;104403;-81
2020/12/30 08:43:41;;;;;;;13.53;8.73;;;;;;;4.95;85.41;98947.25;120624;1150;104378;-81
2020/12/30 08:46:18;;;;;;;14.57;9.37;;;;;;;5.00;85.57;98955.70;120582;1150;104319;-81
2020/12/30 08:48:48;;;;;;;15.47;8.33;;;;;;;5.04;85.48;98952.16;120621;1151;104409;-83
2020/12/30 08:51:34;;;;;;;12.30;7.85;;;;;;;5.06;84.94;98946.05;120564;1150;104492;-82
2020/12/30 08:54:13;;;;;;;13.43;8.17;;;;;;;5.08;84.80;98944.26;120529;1151;104402;-82
2020/12/30 08:56:42;;;;;;;15.33;8.57;;;;;;;5.11;85.34;98940.73;120554;1151;104821;-82
2020/12/30 08:59:19;;;;;;;12.70;8.40;;;;;;;5.12;85.29;98939.83;120535;1151;104369;-82
2020/12/30 09:01:46;;;;;;;;;;;;;;;5.15;84.68;98934.56;120542;1151;101958;-82
2020/12/30 09:04:14;;;;;;;10.88;7.78;;;;;;;5.17;84.58;98948.28;120539;1150;104351;-82
2020/12/30 09:06:48;;;;;;;13.57;8.17;;;;;;;5.19;85.03;98946.48;120504;1150;102395;-83
2020/12/30 09:09:20;;;;;;;16.80;10.37;;;;;;;5.22;84.95;98946.42;120544;1151;104346;-83
2020/12/30 09:11:50;;;;;;;17.27;10.60;;;;;;;5.25;84.98;98961.83;120551;1151;104314;-83
2020/12/30 09:14:20;;;;;;;16.00;9.80;;;;;;;5.27;84.66;98951.44;120687;1150;104319;-83
2020/12/30 09:17:04;;;;;;;16.47;10.00;;;;;;;5.30;84.77;98952.19;120596;1150;104415;-83
2020/12/30 09:19:32;;;;;;;16.20;10.17;;;;;;;5.33;83.67;98952.08;120574;1151;104474;-82
2020/12/30 09:22:09;;;;;;;15.60;9.70;;;;;;;5.34;83.61;98951.19;120514;1151;104317;-82
2020/12/30 09:24:38;;;;;;;16.40;10.73;;;;;;;5.37;84.19;98955.41;120511;1151;104509;-82
2020/12/30 09:27:20;;;;;;;19.70;11.10;;;;;;;5.39;83.13;98953.65;120515;1151;104316;-83
2020/12/30 09:30:15;;;;;;;19.47;10.93;;;;;;;5.43;83.58;98950.06;120659;1150;104513;-82
2020/12/30 09:32:48;;;;;;;17.07;11.00;;;;;;;5.51;83.39;98944.64;120595;1151;104466;-82
2020/12/30 09:35:17;;;;;;;16.33;10.83;;;;;;;5.57;82.88;98947.05;120637;1151;104412;-82
2020/12/30 09:37:53;;;;;;;16.27;9.90;;;;;;;5.61;82.46;98939.13;120635;1150;104389;-82
2020/12/30 09:40:21;;;;;;;16.27;9.17;;;;;;;5.63;82.85;98937.33;120573;1151;104468;-82
2020/12/30 09:42:48;;;;;;;14.10;9.53;;;;;;;5.65;82.22;98929.52;120556;1150;102674;-82
2020/12/30 09:45:19;;;;;;;13.80;8.90;;;;;;;5.64;82.83;98923.50;120504;1151;104665;-83
2020/12/30 09:47:47;;;;;;;12.20;9.07;;;;;;;5.63;82.49;98931.31;120598;1150;104340;-83
2020/12/30 09:50:17;;;;;;;20.63;8.63;;;;;;;5.61;82.61;98928.78;120596;1151;104374;-83
2020/12/30 09:52:46;;;;;;;14.57;8.10;;;;;;;5.60;81.84;98931.42;120609;1151;104387;-84
2020/12/30 09:55:14;;;;;;;13.43;8.20;;;;;;;5.55;82.43;98934.13;120573;1149;104343;-83
2020/12/30 09:57:41;;;;;;;14.63;8.63;;;;;;;5.52;81.98;98941.16;120547;1150;104368;-83
2020/12/30 10:00:09;;;;;;;12.10;8.40;;;;;;;5.49;82.65;98938.67;120532;1151;104407;-83
2020/12/30 10:02:37;;;;;;;15.23;8.57;;;;;;;5.46;82.57;98940.46;120613;1151;104790;-83
2020/12/30 10:05:04;;;;;;;20.50;9.60;;;;;;;5.41;82.07;98926.84;120560;1150;104321;-83
2020/12/30 10:07:36;;;;;;;20.43;9.63;;;;;;;5.41;82.60;98936.34;120671;1150;104620;-83
2020/12/30 10:10:04;;;;;;;24.98;13.18;;;;;;;5.38;82.13;98942.43;120519;1150;104549;-83
2020/12/30 10:12:31;;;;;;;15.03;9.00;;;;;;;5.38;82.67;98934.67;120521;1151;104294;-83
2020/12/30 10:14:58;;;;;;;13.90;8.20;;;;;;;5.35;82.71;98929.61;120465;1150;104351;-83
2020/12/30 10:17:25;;;;;;;14.07;8.50;;;;;;;5.33;82.19;98923.64;120641;1151;104471;-82
2020/12/30 10:19:57;;;;;;;12.93;7.57;;;;;;;5.34;82.87;98917.58;120572;1151;104539;-87
2020/12/30 10:22:32;;;;;;;13.97;8.13;;;;;;;5.36;83.03;98913.20;120512;1151;104571;-83
2020/12/30 10:25:05;;;;;;;16.50;8.40;;;;;;;5.38;82.34;98906.23;120559;1151;104204;-83
2020/12/30 10:27:33;;;;;;;9.90;7.57;;;;;;;5.41;82.96;98905.31;120542;1154;104362;-83
2020/12/30 10:30:08;;;;;;;12.60;7.67;;;;;;;5.44;82.89;98898.30;120589;1150;104396;-82
2020/12/30 10:32:36;;;;;;;14.87;7.63;;;;;;;5.49;82.13;98889.54;120545;1150;104840;-83
2020/12/30 10:35:04;;;;;;;15.17;7.83;;;;;;;5.53;82.82;98883.36;120496;1151;104265;-82
2020/12/30 10:37:32;;;;;;;13.73;8.10;;;;;;;5.60;82.30;98884.86;120622;1151;104430;-84
2020/12/30 10:39:59;;;;;;;15.77;8.50;;;;;;;5.67;82.18;98884.59;120574;1150;104463;-83
2020/12/30 10:42:27;;;;;;;15.33;8.73;;;;;;;5.71;82.50;98883.59;120515;1150;104377;-82
2020/12/30 10:44:54;;;;;;;16.50;7.83;;;;;;;5.74;82.08;98885.22;120588;1150;104395;-82
2020/12/30 10:47:21;;;;;;;15.13;7.47;;;;;;;5.71;81.84;98878.41;120541;1149;104561;-83
2020/12/30 10:49:48;;;;;;;14.37;7.60;;;;;;;5.72;82.11;98879.25;120587;1151;104897;-83
2020/12/30 10:52:15;;;;;;;14.80;8.13;;;;;;;5.73;81.76;98866.27;120561;1151;104473;-83
2020/12/30 10:54:46;;;;;;;14.10;8.67;;;;;;;5.78;81.58;98855.78;120580;1149;104471;-83
2020/12/30 10:57:14;;;;;;;18.13;8.87;;;;;;;5.82;82.16;98862.53;120602;1151;104487;-83
2020/12/30 10:59:41;;;;;;;14.03;7.77;;;;;;;5.84;81.81;98862.48;120549;1151;104478;-83
2020/12/30 11:02:08;;;;;;;15.90;9.23;;;;;;;5.82;81.70;98864.27;120582;1150;104419;-83
2020/12/30 11:04:35;;;;;;;13.83;8.20;;;;;;;5.82;81.39;98857.36;120571;1151;104323;-83
2020/12/30 11:07:03;;;;;;;12.85;8.30;;;;;;;5.83;81.29;98856.45;120588;1150;104442;-85
2020/12/30 11:09:30;;;;;;;23.47;11.10;;;;;;;5.86;81.33;98861.52;120569;1151;102068;-83
2020/12/30 11:11:57;;;;;;;19.03;11.67;;;;;;;5.85;81.16;98859.83;120502;1151;104352;-83
2020/12/30 11:14:27;;;;;;;20.93;12.20;;;;;;;5.87;81.41;98852.86;120573;1149;104430;-83
2020/12/30 11:16:54;;;;;;;20.27;11.77;;;;;;;5.87;81.71;98852.02;120569;1151;104366;-83
2020/12/30 11:19:22;;;;;;;15.33;8.90;;;;;;;5.87;81.02;98857.19;120585;1151;104353;-83
2020/12/30 11:21:50;;;;;;;17.50;10.57;;;;;;;5.85;80.86;98854.66;120593;1150;104399;-83
2020/12/30 11:24:18;;;;;;;18.30;10.63;;;;;;;5.85;80.95;98856.40;120581;1151;103080;-83
2020/12/30 11:26:46;;;;;;;17.90;9.83;;;;;;;5.85;81.05;98853.81;120533;1151;104383;-85